Terminal Aerodrome Forecast
Issued by NWS Cleveland, OH

Home | Current Version | Previous Version | Graphics & Text | Print | Product List | Glossary On
Versions: 1 2 3 4 5 6 7 8 9 10 11 12 13 14 15 16 17
956
FTUS41 KCLE 152320
TAFMFD
TAF
KMFD 152320Z 1600/1624 21007KT 6SM -SN SCT012 BKN020
      TEMPO 1600/1604 3SM -SN BKN010
     FM160400 23008KT P6SM OVC010
      TEMPO 1611/1615 SCT015
     FM161800 23007KT P6SM BKN025=

USA.gov is the U.S. government's official web portal to all federal, state and local government web resources and services.